sensor_id;sensor_type;location;lat;lon;timestamp;P1;durP1;ratioP1;P2;durP2;ratioP2
33148;SDS011;19506;51.040;3.856;2023-03-11T05:07:29;3.90;;;0.80;;
33148;SDS011;19506;51.040;3.856;2023-03-11T05:09:55;3.65;;;0.60;;
33148;SDS011;19506;51.040;3.856;2023-03-11T05:12:20;2.17;;;0.80;;
33148;SDS011;19506;51.040;3.856;2023-03-11T05:14:46;0.70;;;0.70;;
33148;SDS011;19506;51.040;3.856;2023-03-11T05:17:12;0.80;;;0.80;;
33148;SDS011;19506;51.040;3.856;2023-03-11T05:19:38;2.33;;;1.25;;
33148;SDS011;19506;51.040;3.856;2023-03-11T05:22:04;2.75;;;0.90;;
33148;SDS011;19506;51.040;3.856;2023-03-11T05:24:31;3.03;;;0.80;;
33148;SDS011;19506;51.040;3.856;2023-03-11T05:26:57;4.25;;;0.90;;
33148;SDS011;19506;51.040;3.856;2023-03-11T05:29:23;4.43;;;0.80;;
33148;SDS011;19506;51.040;3.856;2023-03-11T05:31:49;1.60;;;0.70;;
33148;SDS011;19506;51.040;3.856;2023-03-11T05:34:15;1.15;;;0.90;;
33148;SDS011;19506;51.040;3.856;2023-03-11T05:36:42;8.40;;;1.90;;
33148;SDS011;19506;51.040;3.856;2023-03-11T05:39:08;9.80;;;1.20;;
33148;SDS011;19506;51.040;3.856;2023-03-11T05:41:34;3.45;;;1.10;;
33148;SDS011;19506;51.040;3.856;2023-03-11T05:44:00;4.65;;;0.90;;
33148;SDS011;19506;51.040;3.856;2023-03-11T05:46:26;3.60;;;1.60;;
33148;SDS011;19506;51.040;3.856;2023-03-11T05:48:51;1.42;;;0.95;;
33148;SDS011;19506;51.040;3.856;2023-03-11T05:51:17;6.00;;;1.33;;
33148;SDS011;19506;51.040;3.856;2023-03-11T05:53:46;1.80;;;1.10;;
33148;SDS011;19506;51.040;3.856;2023-03-11T05:56:17;11.32;;;1.42;;
33148;SDS011;19506;51.040;3.856;2023-03-11T05:58:44;8.40;;;1.08;;
33148;SDS011;19506;51.040;3.856;2023-03-11T06:01:10;3.67;;;1.05;;
33148;SDS011;19506;51.040;3.856;2023-03-11T06:03:38;5.18;;;0.80;;
33148;SDS011;19506;51.040;3.856;2023-03-11T06:06:05;1.98;;;0.93;;
33148;SDS011;19506;51.040;3.856;2023-03-11T06:08:32;3.83;;;0.80;;
33148;SDS011;19506;51.040;3.856;2023-03-11T06:11:01;1.27;;;0.80;;
33148;SDS011;19506;51.040;3.856;2023-03-11T06:13:34;3.65;;;0.90;;
33148;SDS011;19506;51.040;3.856;2023-03-11T06:16:01;2.92;;;0.98;;
33148;SDS011;19506;51.040;3.856;2023-03-11T06:18:27;1.77;;;0.98;;
33148;SDS011;19506;51.040;3.856;2023-03-11T06:20:53;2.00;;;1.05;;
33148;SDS011;19506;51.040;3.856;2023-03-11T06:23:21;2.30;;;0.90;;
33148;SDS011;19506;51.040;3.856;2023-03-11T06:26:06;1.85;;;0.80;;
33148;SDS011;19506;51.040;3.856;2023-03-11T06:28:31;2.42;;;0.90;;
33148;SDS011;19506;51.040;3.856;2023-03-11T06:31:05;5.38;;;1.20;;
33148;SDS011;19506;51.040;3.856;2023-03-11T06:33:32;4.88;;;1.30;;
33148;SDS011;19506;51.040;3.856;2023-03-11T06:35:58;3.42;;;0.95;;
33148;SDS011;19506;51.040;3.856;2023-03-11T06:38:25;4.75;;;1.58;;
33148;SDS011;19506;51.040;3.856;2023-03-11T06:40:51;7.18;;;1.90;;
33148;SDS011;19506;51.040;3.856;2023-03-11T06:43:17;3.63;;;1.30;;
33148;SDS011;19506;51.040;3.856;2023-03-11T06:45:43;5.82;;;1.35;;
33148;SDS011;19506;51.040;3.856;2023-03-11T06:48:09;7.07;;;1.60;;
33148;SDS011;19506;51.040;3.856;2023-03-11T06:50:35;2.55;;;1.70;;
33148;SDS011;19506;51.040;3.856;2023-03-11T06:53:00;7.40;;;1.45;;
33148;SDS011;19506;51.040;3.856;2023-03-11T06:55:30;9.85;;;1.73;;
33148;SDS011;19506;51.040;3.856;2023-03-11T06:57:56;3.88;;;1.60;;
33148;SDS011;19506;51.040;3.856;2023-03-11T07:00:21;4.70;;;1.50;;
33148;SDS011;19506;51.040;3.856;2023-03-11T07:02:47;10.35;;;1.67;;
33148;SDS011;19506;51.040;3.856;2023-03-11T07:05:13;7.13;;;1.33;;
33148;SDS011;19506;51.040;3.856;2023-03-11T07:07:39;9.07;;;2.42;;
33148;SDS011;19506;51.040;3.856;2023-03-11T07:10:05;8.18;;;1.60;;
33148;SDS011;19506;51.040;3.856;2023-03-11T07:12:31;7.18;;;2.30;;
33148;SDS011;19506;51.040;3.856;2023-03-11T07:14:57;18.02;;;2.60;;
33148;SDS011;19506;51.040;3.856;2023-03-11T07:17:23;15.80;;;3.00;;
33148;SDS011;19506;51.040;3.856;2023-03-11T07:19:50;16.63;;;3.08;;
33148;SDS011;19506;51.040;3.856;2023-03-11T07:22:16;14.15;;;3.00;;
33148;SDS011;19506;51.040;3.856;2023-03-11T07:24:45;14.00;;;3.08;;
33148;SDS011;19506;51.040;3.856;2023-03-11T07:27:12;9.07;;;2.55;;
33148;SDS011;19506;51.040;3.856;2023-03-11T07:29:38;15.60;;;4.00;;
33148;SDS011;19506;51.040;3.856;2023-03-11T07:32:05;12.30;;;3.08;;
33148;SDS011;19506;51.040;3.856;2023-03-11T07:34:31;20.85;;;3.40;;
33148;SDS011;19506;51.040;3.856;2023-03-11T07:36:57;18.80;;;3.42;;
33148;SDS011;19506;51.040;3.856;2023-03-11T07:39:22;17.88;;;3.92;;
33148;SDS011;19506;51.040;3.856;2023-03-11T07:41:48;11.40;;;3.60;;
33148;SDS011;19506;51.040;3.856;2023-03-11T07:44:14;16.50;;;3.03;;
33148;SDS011;19506;51.040;3.856;2023-03-11T07:46:40;22.80;;;4.22;;
33148;SDS011;19506;51.040;3.856;2023-03-11T07:49:06;19.60;;;3.78;;
33148;SDS011;19506;51.040;3.856;2023-03-11T07:51:33;18.83;;;4.45;;
33148;SDS011;19506;51.040;3.856;2023-03-11T07:54:00;23.17;;;4.78;;
33148;SDS011;19506;51.040;3.856;2023-03-11T07:56:27;28.27;;;5.03;;
33148;SDS011;19506;51.040;3.856;2023-03-11T07:58:55;30.50;;;5.63;;
33148;SDS011;19506;51.040;3.856;2023-03-11T08:01:23;33.28;;;6.80;;
33148;SDS011;19506;51.040;3.856;2023-03-11T08:03:51;39.47;;;6.05;;
33148;SDS011;19506;51.040;3.856;2023-03-11T08:06:29;47.45;;;6.32;;
33148;SDS011;19506;51.040;3.856;2023-03-11T08:08:57;25.17;;;6.97;;
33148;SDS011;19506;51.040;3.856;2023-03-11T08:11:24;41.65;;;7.80;;
33148;SDS011;19506;51.040;3.856;2023-03-11T08:13:50;38.17;;;7.85;;
33148;SDS011;19506;51.040;3.856;2023-03-11T08:16:17;30.55;;;6.65;;
33148;SDS011;19506;51.040;3.856;2023-03-11T08:18:47;32.30;;;7.00;;
33148;SDS011;19506;51.040;3.856;2023-03-11T08:21:15;26.15;;;6.72;;
33148;SDS011;19506;51.040;3.856;2023-03-11T08:23:42;32.70;;;6.82;;
33148;SDS011;19506;51.040;3.856;2023-03-11T08:26:10;35.92;;;7.28;;
33148;SDS011;19506;51.040;3.856;2023-03-11T08:28:38;26.45;;;6.40;;
33148;SDS011;19506;51.040;3.856;2023-03-11T08:31:10;40.60;;;8.20;;
33148;SDS011;19506;51.040;3.856;2023-03-11T08:33:50;30.15;;;6.13;;
33148;SDS011;19506;51.040;3.856;2023-03-11T08:36:18;25.80;;;6.50;;
33148;SDS011;19506;51.040;3.856;2023-03-11T08:38:44;23.00;;;5.75;;
33148;SDS011;19506;51.040;3.856;2023-03-11T08:41:10;29.95;;;6.43;;
33148;SDS011;19506;51.040;3.856;2023-03-11T08:43:36;28.00;;;6.03;;
33148;SDS011;19506;51.040;3.856;2023-03-11T08:46:03;25.83;;;5.97;;
33148;SDS011;19506;51.040;3.856;2023-03-11T08:48:32;17.25;;;5.65;;
33148;SDS011;19506;51.040;3.856;2023-03-11T08:51:00;25.95;;;6.10;;
33148;SDS011;19506;51.040;3.856;2023-03-11T08:53:27;25.17;;;5.70;;
33148;SDS011;19506;51.040;3.856;2023-03-11T08:55:52;20.60;;;5.18;;
33148;SDS011;19506;51.040;3.856;2023-03-11T08:58:18;29.73;;;7.22;;
33148;SDS011;19506;51.040;3.856;2023-03-11T09:00:44;21.90;;;5.65;;
33148;SDS011;19506;51.040;3.856;2023-03-11T09:03:11;18.70;;;5.20;;
33148;SDS011;19506;51.040;3.856;2023-03-11T09:05:37;28.23;;;5.93;;
33148;SDS011;19506;51.040;3.856;2023-03-11T09:08:03;24.15;;;4.93;;
33148;SDS011;19506;51.040;3.856;2023-03-11T09:10:29;19.42;;;5.50;;
33148;SDS011;19506;51.040;3.856;2023-03-11T09:12:55;20.50;;;4.63;;
33148;SDS011;19506;51.040;3.856;2023-03-11T09:15:20;19.50;;;5.35;;
33148;SDS011;19506;51.040;3.856;2023-03-11T09:17:46;16.30;;;5.25;;
33148;SDS011;19506;51.040;3.856;2023-03-11T09:20:12;14.38;;;5.47;;
33148;SDS011;19506;51.040;3.856;2023-03-11T09:22:38;19.65;;;6.60;;
33148;SDS011;19506;51.040;3.856;2023-03-11T09:25:04;16.73;;;4.45;;
33148;SDS011;19506;51.040;3.856;2023-03-11T09:27:30;12.90;;;5.10;;
33148;SDS011;19506;51.040;3.856;2023-03-11T09:29:56;15.85;;;4.05;;
33148;SDS011;19506;51.040;3.856;2023-03-11T09:32:21;14.40;;;4.60;;
33148;SDS011;19506;51.040;3.856;2023-03-11T09:34:47;14.93;;;4.05;;
33148;SDS011;19506;51.040;3.856;2023-03-11T09:37:13;12.82;;;4.68;;
33148;SDS011;19506;51.040;3.856;2023-03-11T09:39:39;24.17;;;4.65;;
33148;SDS011;19506;51.040;3.856;2023-03-11T09:44:58;16.00;;;4.07;;
33148;SDS011;19506;51.040;3.856;2023-03-11T09:52:56;13.00;;;3.75;;
33148;SDS011;19506;51.040;3.856;2023-03-11T09:55:51;11.65;;;4.30;;
33148;SDS011;19506;51.040;3.856;2023-03-11T09:58:30;10.95;;;3.53;;
33148;SDS011;19506;51.040;3.856;2023-03-11T10:03:52;11.85;;;3.55;;
33148;SDS011;19506;51.040;3.856;2023-03-11T10:19:32;8.68;;;3.47;;
33148;SDS011;19506;51.040;3.856;2023-03-11T10:22:27;12.50;;;4.00;;
33148;SDS011;19506;51.040;3.856;2023-03-11T10:27:30;12.00;;;2.88;;
33148;SDS011;19506;51.040;3.856;2023-03-11T10:30:14;8.93;;;3.53;;
33148;SDS011;19506;51.040;3.856;2023-03-11T10:33:05;12.23;;;3.47;;
33148;SDS011;19506;51.040;3.856;2023-03-11T10:35:39;7.93;;;3.10;;
33148;SDS011;19506;51.040;3.856;2023-03-11T10:40:47;10.43;;;3.03;;
33148;SDS011;19506;51.040;3.856;2023-03-11T10:43:18;7.25;;;3.47;;
33148;SDS011;19506;51.040;3.856;2023-03-11T10:45:51;7.63;;;3.13;;
33148;SDS011;19506;51.040;3.856;2023-03-11T10:48:18;7.13;;;3.03;;
33148;SDS011;19506;51.040;3.856;2023-03-11T10:53:28;11.20;;;2.97;;
33148;SDS011;19506;51.040;3.856;2023-03-11T10:55:55;8.13;;;3.53;;
33148;SDS011;19506;51.040;3.856;2023-03-11T10:58:24;8.63;;;2.83;;
33148;SDS011;19506;51.040;3.856;2023-03-11T11:01:04;8.90;;;3.45;;
33148;SDS011;19506;51.040;3.856;2023-03-11T11:03:46;10.95;;;3.50;;
33148;SDS011;19506;51.040;3.856;2023-03-11T11:06:18;6.85;;;3.00;;
33148;SDS011;19506;51.040;3.856;2023-03-11T11:11:40;5.43;;;2.97;;
33148;SDS011;19506;51.040;3.856;2023-03-11T11:14:07;8.20;;;2.92;;
33148;SDS011;19506;51.040;3.856;2023-03-11T11:16:34;7.30;;;2.92;;
33148;SDS011;19506;51.040;3.856;2023-03-11T11:19:10;6.57;;;3.00;;
33148;SDS011;19506;51.040;3.856;2023-03-11T11:21:39;6.65;;;2.58;;
33148;SDS011;19506;51.040;3.856;2023-03-11T11:27:01;7.05;;;2.60;;
33148;SDS011;19506;51.040;3.856;2023-03-11T11:29:36;5.32;;;2.60;;
33148;SDS011;19506;51.040;3.856;2023-03-11T11:34:52;5.97;;;2.75;;
33148;SDS011;19506;51.040;3.856;2023-03-11T11:37:22;7.95;;;2.60;;
33148;SDS011;19506;51.040;3.856;2023-03-11T11:39:52;6.90;;;3.33;;
33148;SDS011;19506;51.040;3.856;2023-03-11T11:42:22;8.57;;;2.50;;
33148;SDS011;19506;51.040;3.856;2023-03-11T11:44:51;4.97;;;2.40;;
33148;SDS011;19506;51.040;3.856;2023-03-11T11:47:46;7.65;;;2.72;;
33148;SDS011;19506;51.040;3.856;2023-03-11T11:50:35;8.07;;;2.80;;
33148;SDS011;19506;51.040;3.856;2023-03-11T11:53:11;7.57;;;2.50;;
33148;SDS011;19506;51.040;3.856;2023-03-11T11:55:58;7.88;;;2.83;;
33148;SDS011;19506;51.040;3.856;2023-03-11T11:58:25;5.88;;;2.50;;
33148;SDS011;19506;51.040;3.856;2023-03-11T12:03:47;6.93;;;2.65;;
33148;SDS011;19506;51.040;3.856;2023-03-11T12:12:03;10.20;;;3.08;;
33148;SDS011;19506;51.040;3.856;2023-03-11T12:14:53;11.27;;;3.05;;
33148;SDS011;19506;51.040;3.856;2023-03-11T12:17:34;6.13;;;2.40;;
33148;SDS011;19506;51.040;3.856;2023-03-11T12:20:08;4.45;;;1.92;;
33148;SDS011;19506;51.040;3.856;2023-03-11T12:28:29;8.85;;;2.17;;
33148;SDS011;19506;51.040;3.856;2023-03-11T12:31:09;6.78;;;2.47;;
33148;SDS011;19506;51.040;3.856;2023-03-11T12:33:37;6.55;;;2.38;;
33148;SDS011;19506;51.040;3.856;2023-03-11T12:36:06;11.68;;;2.83;;
33148;SDS011;19506;51.040;3.856;2023-03-11T12:38:45;7.30;;;2.15;;
33148;SDS011;19506;51.040;3.856;2023-03-11T12:46:09;13.30;;;2.08;;
33148;SDS011;19506;51.040;3.856;2023-03-11T12:48:41;8.93;;;2.63;;
33148;SDS011;19506;51.040;3.856;2023-03-11T12:53:51;14.13;;;2.78;;
33148;SDS011;19506;51.040;3.856;2023-03-11T12:58:56;5.85;;;1.90;;
33148;SDS011;19506;51.040;3.856;2023-03-11T13:04:57;20.48;;;2.88;;
33148;SDS011;19506;51.040;3.856;2023-03-11T13:07:38;12.18;;;2.53;;
33148;SDS011;19506;51.040;3.856;2023-03-11T13:10:32;10.10;;;2.42;;
33148;SDS011;19506;51.040;3.856;2023-03-11T13:12:58;16.83;;;2.33;;
33148;SDS011;19506;51.040;3.856;2023-03-11T13:15:28;8.38;;;2.30;;
33148;SDS011;19506;51.040;3.856;2023-03-11T13:31:04;8.02;;;2.03;;
33148;SDS011;19506;51.040;3.856;2023-03-11T13:36:23;8.68;;;2.17;;
33148;SDS011;19506;51.040;3.856;2023-03-11T13:41:55;15.93;;;1.95;;
33148;SDS011;19506;51.040;3.856;2023-03-11T13:44:42;8.98;;;2.60;;
33148;SDS011;19506;51.040;3.856;2023-03-11T13:47:14;9.67;;;2.63;;
33148;SDS011;19506;51.040;3.856;2023-03-11T13:49:42;15.65;;;2.58;;
33148;SDS011;19506;51.040;3.856;2023-03-11T13:52:11;20.67;;;3.83;;
33148;SDS011;19506;51.040;3.856;2023-03-11T13:54:45;6.15;;;1.73;;
33148;SDS011;19506;51.040;3.856;2023-03-11T13:57:23;6.28;;;2.17;;
33148;SDS011;19506;51.040;3.856;2023-03-11T13:59:55;6.05;;;2.13;;
33148;SDS011;19506;51.040;3.856;2023-03-11T14:02:22;17.25;;;2.72;;
33148;SDS011;19506;51.040;3.856;2023-03-11T14:04:54;10.65;;;3.13;;
33148;SDS011;19506;51.040;3.856;2023-03-11T14:07:30;7.97;;;2.53;;
33148;SDS011;19506;51.040;3.856;2023-03-11T14:13:13;12.68;;;2.83;;
33148;SDS011;19506;51.040;3.856;2023-03-11T14:15:58;18.05;;;3.00;;
33148;SDS011;19506;51.040;3.856;2023-03-11T14:20:53;12.88;;;2.63;;
33148;SDS011;19506;51.040;3.856;2023-03-11T14:23:19;8.35;;;2.10;;
33148;SDS011;19506;51.040;3.856;2023-03-11T14:25:45;10.13;;;2.22;;
33148;SDS011;19506;51.040;3.856;2023-03-11T14:28:19;12.95;;;2.35;;
33148;SDS011;19506;51.040;3.856;2023-03-11T14:30:55;2.95;;;1.55;;
33148;SDS011;19506;51.040;3.856;2023-03-11T14:33:23;6.95;;;2.00;;
33148;SDS011;19506;51.040;3.856;2023-03-11T14:35:56;7.45;;;2.10;;
33148;SDS011;19506;51.040;3.856;2023-03-11T14:38:25;11.23;;;2.50;;
33148;SDS011;19506;51.040;3.856;2023-03-11T14:40:59;6.13;;;2.20;;
33148;SDS011;19506;51.040;3.856;2023-03-11T14:43:27;8.25;;;3.35;;
33148;SDS011;19506;51.040;3.856;2023-03-11T14:46:01;11.90;;;2.17;;
33148;SDS011;19506;51.040;3.856;2023-03-11T14:48:37;16.83;;;2.95;;
33148;SDS011;19506;51.040;3.856;2023-03-11T14:51:07;10.25;;;2.20;;
33148;SDS011;19506;51.040;3.856;2023-03-11T14:53:40;9.32;;;2.53;;
33148;SDS011;19506;51.040;3.856;2023-03-11T14:56:20;10.52;;;2.58;;
33148;SDS011;19506;51.040;3.856;2023-03-11T14:58:54;9.63;;;3.13;;
33148;SDS011;19506;51.040;3.856;2023-03-11T15:01:31;11.73;;;2.50;;
33148;SDS011;19506;51.040;3.856;2023-03-11T15:04:07;11.38;;;2.92;;
33148;SDS011;19506;51.040;3.856;2023-03-11T15:06:45;12.65;;;3.33;;
33148;SDS011;19506;51.040;3.856;2023-03-11T15:09:12;11.65;;;3.92;;
33148;SDS011;19506;51.040;3.856;2023-03-11T15:19:55;16.02;;;3.25;;
33148;SDS011;19506;51.040;3.856;2023-03-11T15:22:28;17.52;;;4.18;;
33148;SDS011;19506;51.040;3.856;2023-03-11T15:25:02;9.25;;;2.90;;
33148;SDS011;19506;51.040;3.856;2023-03-11T15:27:38;11.65;;;3.55;;
33148;SDS011;19506;51.040;3.856;2023-03-11T15:30:14;12.65;;;3.58;;
33148;SDS011;19506;51.040;3.856;2023-03-11T15:32:45;10.55;;;3.53;;
33148;SDS011;19506;51.040;3.856;2023-03-11T15:35:23;14.95;;;3.28;;
33148;SDS011;19506;51.040;3.856;2023-03-11T15:38:09;14.63;;;3.17;;
33148;SDS011;19506;51.040;3.856;2023-03-11T15:40:36;9.98;;;2.78;;
33148;SDS011;19506;51.040;3.856;2023-03-11T15:43:18;10.02;;;3.13;;
33148;SDS011;19506;51.040;3.856;2023-03-11T15:46:16;9.20;;;3.40;;
33148;SDS011;19506;51.040;3.856;2023-03-11T15:48:42;12.05;;;3.25;;
33148;SDS011;19506;51.040;3.856;2023-03-11T15:51:18;11.60;;;3.72;;
33148;SDS011;19506;51.040;3.856;2023-03-11T15:53:44;8.80;;;3.60;;
33148;SDS011;19506;51.040;3.856;2023-03-11T15:56:11;9.00;;;3.03;;
33148;SDS011;19506;51.040;3.856;2023-03-11T15:58:43;10.23;;;3.08;;
33148;SDS011;19506;51.040;3.856;2023-03-11T16:01:09;18.77;;;3.85;;
33148;SDS011;19506;51.040;3.856;2023-03-11T16:03:34;15.63;;;2.97;;
33148;SDS011;19506;51.040;3.856;2023-03-11T16:06:02;13.00;;;3.55;;
33148;SDS011;19506;51.040;3.856;2023-03-11T16:08:28;14.73;;;3.38;;
33148;SDS011;19506;51.040;3.856;2023-03-11T16:10:54;5.85;;;2.63;;
33148;SDS011;19506;51.040;3.856;2023-03-11T16:13:19;12.60;;;3.28;;
33148;SDS011;19506;51.040;3.856;2023-03-11T16:15:45;12.63;;;2.80;;
33148;SDS011;19506;51.040;3.856;2023-03-11T16:18:11;20.77;;;3.15;;
33148;SDS011;19506;51.040;3.856;2023-03-11T16:23:18;18.70;;;3.85;;
33148;SDS011;19506;51.040;3.856;2023-03-11T16:25:56;15.50;;;3.90;;
33148;SDS011;19506;51.040;3.856;2023-03-11T16:28:24;18.63;;;3.60;;
33148;SDS011;19506;51.040;3.856;2023-03-11T16:30:51;22.17;;;3.95;;
33148;SDS011;19506;51.040;3.856;2023-03-11T16:33:17;22.23;;;4.68;;
33148;SDS011;19506;51.040;3.856;2023-03-11T16:35:42;19.98;;;4.07;;
33148;SDS011;19506;51.040;3.856;2023-03-11T16:38:08;31.50;;;4.97;;
33148;SDS011;19506;51.040;3.856;2023-03-11T16:40:34;36.20;;;5.10;;
33148;SDS011;19506;51.040;3.856;2023-03-11T16:43:01;32.78;;;5.68;;
33148;SDS011;19506;51.040;3.856;2023-03-11T16:45:31;46.97;;;8.88;;
33148;SDS011;19506;51.040;3.856;2023-03-11T16:47:57;45.75;;;6.93;;
33148;SDS011;19506;51.040;3.856;2023-03-11T16:50:23;28.23;;;5.97;;
33148;SDS011;19506;51.040;3.856;2023-03-11T16:52:50;34.90;;;6.10;;
33148;SDS011;19506;51.040;3.856;2023-03-11T16:55:17;33.88;;;8.23;;
33148;SDS011;19506;51.040;3.856;2023-03-11T16:57:43;34.28;;;6.85;;
33148;SDS011;19506;51.040;3.856;2023-03-11T17:00:09;36.67;;;6.35;;
33148;SDS011;19506;51.040;3.856;2023-03-11T17:02:36;36.03;;;6.45;;
33148;SDS011;19506;51.040;3.856;2023-03-11T17:05:03;35.10;;;6.78;;
33148;SDS011;19506;51.040;3.856;2023-03-11T17:07:29;27.10;;;7.20;;
33148;SDS011;19506;51.040;3.856;2023-03-11T17:09:56;40.65;;;7.68;;
33148;SDS011;19506;51.040;3.856;2023-03-11T17:12:23;32.28;;;7.00;;
33148;SDS011;19506;51.040;3.856;2023-03-11T17:14:50;33.28;;;7.40;;
33148;SDS011;19506;51.040;3.856;2023-03-11T17:17:16;35.47;;;6.25;;
33148;SDS011;19506;51.040;3.856;2023-03-11T17:19:43;30.05;;;6.97;;
33148;SDS011;19506;51.040;3.856;2023-03-11T17:22:09;39.83;;;7.97;;
33148;SDS011;19506;51.040;3.856;2023-03-11T17:24:35;37.50;;;7.25;;
33148;SDS011;19506;51.040;3.856;2023-03-11T17:27:01;31.15;;;6.63;;
33148;SDS011;19506;51.040;3.856;2023-03-11T17:29:27;30.65;;;7.43;;
33148;SDS011;19506;51.040;3.856;2023-03-11T17:31:53;25.20;;;6.05;;
33148;SDS011;19506;51.040;3.856;2023-03-11T17:34:18;34.10;;;6.72;;
33148;SDS011;19506;51.040;3.856;2023-03-11T17:36:44;33.17;;;6.63;;
33148;SDS011;19506;51.040;3.856;2023-03-11T17:39:10;28.23;;;6.78;;
33148;SDS011;19506;51.040;3.856;2023-03-11T17:41:36;32.20;;;7.13;;
33148;SDS011;19506;51.040;3.856;2023-03-11T17:44:01;32.15;;;7.05;;
33148;SDS011;19506;51.040;3.856;2023-03-11T17:46:27;40.53;;;7.53;;
33148;SDS011;19506;51.040;3.856;2023-03-11T17:48:53;20.27;;;6.15;;
33148;SDS011;19506;51.040;3.856;2023-03-11T17:51:19;24.90;;;5.82;;
33148;SDS011;19506;51.040;3.856;2023-03-11T17:53:47;32.65;;;5.85;;
33148;SDS011;19506;51.040;3.856;2023-03-11T17:56:14;24.15;;;6.30;;
33148;SDS011;19506;51.040;3.856;2023-03-11T17:58:42;26.65;;;6.18;;
33148;SDS011;19506;51.040;3.856;2023-03-11T18:01:18;20.40;;;6.30;;
33148;SDS011;19506;51.040;3.856;2023-03-11T18:03:46;22.42;;;5.80;;
33148;SDS011;19506;51.040;3.856;2023-03-11T18:06:12;19.90;;;5.55;;
33148;SDS011;19506;51.040;3.856;2023-03-11T18:08:38;22.88;;;6.25;;
33148;SDS011;19506;51.040;3.856;2023-03-11T18:13:32;24.52;;;5.65;;
33148;SDS011;19506;51.040;3.856;2023-03-11T18:16:09;18.88;;;5.05;;
33148;SDS011;19506;51.040;3.856;2023-03-11T18:18:37;23.40;;;6.47;;
33148;SDS011;19506;51.040;3.856;2023-03-11T18:21:05;24.05;;;5.80;;
33148;SDS011;19506;51.040;3.856;2023-03-11T18:23:36;16.92;;;4.60;;
33148;SDS011;19506;51.040;3.856;2023-03-11T18:26:03;17.90;;;5.53;;
33148;SDS011;19506;51.040;3.856;2023-03-11T18:28:30;23.98;;;6.25;;
33148;SDS011;19506;51.040;3.856;2023-03-11T18:33:28;27.63;;;6.35;;
33148;SDS011;19506;51.040;3.856;2023-03-11T18:38:19;19.85;;;4.95;;
33148;SDS011;19506;51.040;3.856;2023-03-11T18:40:45;26.20;;;6.60;;
33148;SDS011;19506;51.040;3.856;2023-03-11T18:43:11;20.67;;;6.05;;
33148;SDS011;19506;51.040;3.856;2023-03-11T18:45:38;19.08;;;5.53;;
33148;SDS011;19506;51.040;3.856;2023-03-11T18:50:30;17.65;;;5.00;;
33148;SDS011;19506;51.040;3.856;2023-03-11T18:52:55;19.35;;;5.13;;
33148;SDS011;19506;51.040;3.856;2023-03-11T18:57:46;18.88;;;5.18;;
33148;SDS011;19506;51.040;3.856;2023-03-11T19:02:40;13.18;;;4.75;;
33148;SDS011;19506;51.040;3.856;2023-03-11T19:07:32;17.58;;;4.72;;
33148;SDS011;19506;51.040;3.856;2023-03-11T19:09:57;17.73;;;5.32;;
33148;SDS011;19506;51.040;3.856;2023-03-11T19:14:53;12.50;;;4.40;;
33148;SDS011;19506;51.040;3.856;2023-03-11T19:19:44;16.02;;;5.22;;
33148;SDS011;19506;51.040;3.856;2023-03-11T19:22:09;15.00;;;4.38;;
33148;SDS011;19506;51.040;3.856;2023-03-11T19:24:35;17.20;;;4.93;;
33148;SDS011;19506;51.040;3.856;2023-03-11T19:27:01;18.77;;;5.13;;
33148;SDS011;19506;51.040;3.856;2023-03-11T19:29:26;12.90;;;4.07;;
33148;SDS011;19506;51.040;3.856;2023-03-11T19:34:17;13.23;;;5.30;;
33148;SDS011;19506;51.040;3.856;2023-03-11T19:36:45;12.18;;;4.47;;
33148;SDS011;19506;51.040;3.856;2023-03-11T19:39:11;16.35;;;4.63;;
33148;SDS011;19506;51.040;3.856;2023-03-11T19:44:02;9.52;;;3.65;;
33148;SDS011;19506;51.040;3.856;2023-03-11T19:46:28;12.32;;;4.03;;
33148;SDS011;19506;51.040;3.856;2023-03-11T19:48:54;16.05;;;4.63;;
33148;SDS011;19506;51.040;3.856;2023-03-11T19:51:20;12.15;;;4.20;;
33148;SDS011;19506;51.040;3.856;2023-03-11T19:53:46;14.10;;;4.28;;
33148;SDS011;19506;51.040;3.856;2023-03-11T19:58:39;15.63;;;4.55;;
33148;SDS011;19506;51.040;3.856;2023-03-11T20:01:06;13.70;;;4.47;;
33148;SDS011;19506;51.040;3.856;2023-03-11T20:03:38;9.30;;;3.28;;
33148;SDS011;19506;51.040;3.856;2023-03-11T20:08:29;12.15;;;4.50;;
33148;SDS011;19506;51.040;3.856;2023-03-11T20:11:00;16.25;;;4.47;;
33148;SDS011;19506;51.040;3.856;2023-03-11T20:15:51;10.00;;;3.75;;
33148;SDS011;19506;51.040;3.856;2023-03-11T20:20:43;10.45;;;3.67;;
33148;SDS011;19506;51.040;3.856;2023-03-11T20:23:10;11.13;;;4.00;;
33148;SDS011;19506;51.040;3.856;2023-03-11T20:25:39;12.25;;;4.18;;
33148;SDS011;19506;51.040;3.856;2023-03-11T20:28:05;9.98;;;3.45;;
33148;SDS011;19506;51.040;3.856;2023-03-11T20:30:31;15.77;;;3.70;;
33148;SDS011;19506;51.040;3.856;2023-03-11T20:35:23;10.50;;;3.92;;
33148;SDS011;19506;51.040;3.856;2023-03-11T20:37:48;13.68;;;4.20;;
33148;SDS011;19506;51.040;3.856;2023-03-11T20:40:15;12.43;;;4.15;;
33148;SDS011;19506;51.040;3.856;2023-03-11T20:42:42;9.90;;;3.70;;
33148;SDS011;19506;51.040;3.856;2023-03-11T20:45:11;12.45;;;3.80;;
33148;SDS011;19506;51.040;3.856;2023-03-11T20:47:45;10.23;;;3.72;;
33148;SDS011;19506;51.040;3.856;2023-03-11T20:50:15;9.70;;;3.50;;
33148;SDS011;19506;51.040;3.856;2023-03-11T20:52:41;10.23;;;3.70;;
33148;SDS011;19506;51.040;3.856;2023-03-11T20:59:59;8.45;;;3.20;;
33148;SDS011;19506;51.040;3.856;2023-03-11T21:02:25;8.82;;;3.95;;
33148;SDS011;19506;51.040;3.856;2023-03-11T21:04:54;6.38;;;3.35;;
33148;SDS011;19506;51.040;3.856;2023-03-11T21:09:45;6.80;;;3.08;;
33148;SDS011;19506;51.040;3.856;2023-03-11T21:12:12;6.82;;;3.38;;
33148;SDS011;19506;51.040;3.856;2023-03-11T21:17:04;7.57;;;3.20;;
33148;SDS011;19506;51.040;3.856;2023-03-11T21:19:29;13.68;;;4.20;;
33148;SDS011;19506;51.040;3.856;2023-03-11T21:24:21;6.38;;;2.80;;
33148;SDS011;19506;51.040;3.856;2023-03-11T21:26:47;7.45;;;3.42;;
33148;SDS011;19506;51.040;3.856;2023-03-11T21:29:12;6.55;;;3.05;;
33148;SDS011;19506;51.040;3.856;2023-03-11T21:34:03;9.82;;;3.38;;
33148;SDS011;19506;51.040;3.856;2023-03-11T21:36:29;9.30;;;3.25;;
33148;SDS011;19506;51.040;3.856;2023-03-11T21:41:21;10.32;;;3.50;;
33148;SDS011;19506;51.040;3.856;2023-03-11T21:43:52;8.80;;;2.88;;
33148;SDS011;19506;51.040;3.856;2023-03-11T21:46:19;10.45;;;3.15;;
33148;SDS011;19506;51.040;3.856;2023-03-11T21:48:48;8.10;;;2.85;;
33148;SDS011;19506;51.040;3.856;2023-03-11T21:51:14;6.35;;;2.53;;
33148;SDS011;19506;51.040;3.856;2023-03-11T21:53:41;8.10;;;2.70;;
33148;SDS011;19506;51.040;3.856;2023-03-11T21:56:07;6.75;;;2.85;;
33148;SDS011;19506;51.040;3.856;2023-03-11T21:58:33;9.45;;;3.20;;
33148;SDS011;19506;51.040;3.856;2023-03-11T22:01:00;6.28;;;2.67;;
33148;SDS011;19506;51.040;3.856;2023-03-11T22:03:26;7.75;;;3.38;;
33148;SDS011;19506;51.040;3.856;2023-03-11T22:05:59;6.50;;;3.30;;
33148;SDS011;19506;51.040;3.856;2023-03-11T22:08:35;7.38;;;2.97;;
33148;SDS011;19506;51.040;3.856;2023-03-11T22:11:01;6.32;;;3.00;;
33148;SDS011;19506;51.040;3.856;2023-03-11T22:13:30;6.95;;;2.70;;
33148;SDS011;19506;51.040;3.856;2023-03-11T22:18:22;5.90;;;2.78;;
33148;SDS011;19506;51.040;3.856;2023-03-11T22:20:47;7.70;;;2.97;;
33148;SDS011;19506;51.040;3.856;2023-03-11T22:23:13;4.10;;;2.55;;
33148;SDS011;19506;51.040;3.856;2023-03-11T22:25:39;6.18;;;3.00;;
33148;SDS011;19506;51.040;3.856;2023-03-11T22:28:04;5.95;;;2.80;;
33148;SDS011;19506;51.040;3.856;2023-03-11T22:32:55;7.28;;;2.97;;
33148;SDS011;19506;51.040;3.856;2023-03-11T22:37:46;5.40;;;3.13;;
33148;SDS011;19506;51.040;3.856;2023-03-11T22:40:12;6.07;;;2.58;;
33148;SDS011;19506;51.040;3.856;2023-03-11T22:42:38;6.85;;;3.22;;
33148;SDS011;19506;51.040;3.856;2023-03-11T22:47:30;7.27;;;3.07;;